x

Frying Pan Shoals, Nc Buoy (41013) Wave Buoy

4:50 - Sun 28th Dec 2014 All times are EST. -5 hours from GMT.

  • Sig Wave height 5.2ft
  • Swell Direction
  • Peak Period 15s
  • Average Period 8s
  • Wind
    13mph, 16mph gusts
  • Sea Temp 68°f
  • Luft Temp 70°f
  • Sea Pressure 1020.8mb
  • Frying Pan Shoals, Nc Buoy
  • Frying Pan Shoals, Nc Buoy

More Historic Weather Station data

Upgrade to MSW Pro to gain access to the past 30 days of data for over 8000 Wavebouys and Weather Stations around the globe.

Join Pro

Comparision Forecast

View Surf forecast
   
So 12/28 4:50 5ft 15s 8s 13 16 mph 1020.8mb 68f 70f
3:50 5ft 15s 8s 13 18 mph 1021.3mb 68f 70f
2:50 5ft 15s 9s 13 16 mph 1021.8mb 68f 70f
1:50 4ft 15s 8s 13 16 mph 1022.1mb 68f 70f
12:50 4ft 16s 10s 16
mph
1022.5mb 68f 70f
Sa 12/27 11:50 4.5ft 16s 11s 7 9 mph 1023.4mb 68f 68f
10:50 3.5ft 16s 9s 9 13 mph 1024.1mb 68f 67f
9:50 3.5ft 15s 9s 7 9 mph 1025.2mb 69f 66f
8:50 3.5ft 16s 9s 9 11 mph 1025mb 69f 65f
7:50 3ft 16s 9s 7 9 mph 1025.4mb 69f 64f
6:50 3ft 16s 8s 4 7 mph 1025.9mb 69f 64f
5:50 2.5ft 16s 7s 4 7 mph 1025.5mb 69f 64f
4:50 2.5ft 17s 7s 4 7 mph 1025.2mb 69f 64f
3:50 3ft 17s 8s 7
mph
1024.8mb 69f 63f
2:50 2.5ft 17s 6s 4 7 mph 1025.3mb 69f 62f
1:50 2.5ft 17s 6s 9 11 mph 1025.7mb 69f 60f
12:50 2.5ft 17s 7s 9 11 mph 1026.2mb 69f 61f
11:50 2.5ft 17s 7s 7 9 mph 1027.1mb 69f 62f
10:50 2.5ft 13s 6s 7 9 mph 1028.2mb 69f 62f
9:50 2.5ft 13s 6s 7 9 mph 1028.3mb 69f 62f
8:50 2.5ft 12s 6s 7 11 mph 1027.5mb 69f 61f
7:50 2ft 12s 6s 9 13 mph 1027.2mb 69f 60f
6:50 2.5ft 8s 5s 11 13 mph 1026.7mb 69f 60f
5:50 2.5ft 8s 6s 9 11 mph 1026mb 69f 60f
4:50 2ft 13s 6s 9 11 mph 1025.8mb 69f 60f
3:50 2.5ft 13s 7s 7 9 mph 1025.9mb 69f 60f
2:50 2ft 13s 6s 7 11 mph 1026.2mb 69f 60f
1:50 2ft 13s 6s 7 9 mph 1026.4mb 69f 60f
12:50 2ft 8s 6s 4 7 mph 1026mb 69f 60f
Fr 12/26 11:50 2ft 7s 6s 7 9 mph 1026.6mb 69f 60f
10:50 2ft 7s 5s 7 9 mph 1027.4mb 69f 60f
9:50 2ft 9s 5s 7 9 mph 1027.5mb 69f 60f
8:50 2ft 7s 5s 9 11 mph 1026.9mb 69f 60f
7:50 2.5ft 7s 5s 11 13 mph 1026.9mb 69f 59f
6:50 2.5ft 7s 5s 11 13 mph 1026.5mb 69f 58f
5:50 2.5ft 7s 5s 11 13 mph 1026.4mb 69f 58f
4:50 2.5ft 7s 4s 11 13 mph 1026.1mb 69f 58f
3:50 2.5ft 7s 4s 11 13 mph 1026.1mb 69f 58f
2:50 2.5ft 7s 4s 13 16 mph 1025.6mb 69f 58f
1:50 2.5ft 8s 4s 13 18 mph 1025.7mb 69f 58f
12:50 2.5ft 7s 4s 11 16 mph 1026.3mb 70f 58f
11:50 2.5ft 7s 5s 13 16 mph 1026.9mb 70f 58f
10:50 2.5ft 7s 4s 13 16 mph 1027.8mb 70f 58f
9:50 2ft 7s 4s 13 18 mph 1027.4mb 70f 59f
8:50 2.5ft 7s 5s 13 16 mph 1026.9mb 70f 59f
7:50 2.5ft 7s 5s 9 11 mph 1026.3mb 70f 60f
6:50 2.5ft 8s 5s 9 11 mph 1025.4mb 70f 59f
5:50 2.5ft 7s 5s 9 11 mph 1025mb 69f 59f
4:50 2.5ft 7s 5s 9 13 mph 1025mb 69f 58f
3:50 3ft 7s 5s 9 13 mph 1025.1mb 69f 58f
2:50 3ft 8s 5s 9 13 mph 1024.9mb 70f 58f
1:50 3ft 8s 5s 11 16 mph 1024.4mb 70f 58f
12:50 3ft 6s 5s 11 16 mph 1024.3mb 70f 58f
Do 12/25 11:50 3.5ft 6s 5s 13 16 mph 1024.4mb 70f 59f
10:50 3.5ft 7s 5s 13 18 mph 1024.2mb 70f 59f
9:50 3.5ft 7s 5s 13 16 mph 1024.2mb 70f 59f
8:50 3.5ft 6s 5s 13 20 mph 1024mb 70f 59f
7:50 4ft 7s 5s 9 16 mph 1023.1mb 70f 59f
6:50 4ft 8s 5s 11 16 mph 1022.4mb 70f 58f
5:50 4.5ft 8s 5s 9 18 mph 1021.5mb 70f 58f
4:50 4.5ft 7s 5s 11 16 mph 1021mb 70f 57f
3:50 5ft 8s 5s 16 20 mph 1020.5mb 71f 57f
2:50 5ft 7s 5s 16 20 mph 1019.7mb 71f 57f
1:50 5.5ft 6s 5s 16 22 mph 1019.1mb 71f 56f
12:50 6.5ft 6s 5s 18 22 mph 1018.5mb 71f 56f
11:50 7ft 6s 5s 22 29 mph 1018.4mb 71f 57f
10:50 7ft 5s 5s 29 34 mph 1018.4mb 71f 58f
9:50 7ft 5s 5s 25 31 mph 1017.5mb 71f 59f
8:50 7ft 5s 5s 22 29 mph 1016.5mb 71f 60f
7:50 7ft 8s 5s 29 34 mph 1014.8mb 71f 62f
6:50 7ft 8s 5s 29 34 mph 1012.8mb 71f 64f
5:50 7ft 7s 5s 29 34 mph 1011.2mb 71f 65f
4:50 7ft 8s 5s 29 36 mph 1010.4mb 71f 68f
3:50 7ft 7s 5s 22 27 mph 1009.6mb 71f 69f
2:50 7ft 7s 5s 27 31 mph 1009.2mb 71f 69f
1:50 7ft 8s 5s 27 34 mph 1008.9mb 71f 69f
12:50 7ft 8s 6s 27 34 mph 1008.5mb 72f 71f
Mi 12/24 11:50 7ft 8s 6s 20 25 mph 1008.4mb 72f 72f
10:50 6.5ft 8s 6s 22 27 mph 1008.8mb 71f 72f
9:50 7ft 8s 6s 16 20 mph 1009mb 71f 70f
8:50 7ft 8s 6s 22 27 mph 1008.8mb 71f 74f
7:50 8ft 8s 6s 18 22 mph 1009.4mb 71f 73f
6:50 8ft 8s 6s 22 27 mph 1009.6mb 71f 74f
5:50 8ft 8s 6s 18 22 mph 1009.7mb 71f 74f
4:50 9.5ft 8s 6s 20 25 mph 1009.8mb 71f 74f
3:50 10ft 8s 6s 25 29 mph 1009.4mb 71f 74f
2:50 11ft 8s 6s 27 36 mph 1009.3mb 71f 75f
1:50 10.5ft 8s 6s 29 34 mph 1009.4mb 71f 75f
12:50 10.5ft 8s 6s 29 36 mph 1009.6mb 71f 75f
11:50 9.5ft 7s 6s 27 36 mph 1010.2mb 71f 74f